sensor_id;sensor_type;location;lat;lon;timestamp;P1;durP1;ratioP1;P2;durP2;ratioP2
40995;SDS011;26723;57.478;12.066;2022-08-02T00:00:08;1.47;;;1.00;;
40995;SDS011;26723;57.478;12.066;2022-08-02T00:03:54;2.63;;;1.10;;
40995;SDS011;26723;57.478;12.066;2022-08-02T00:07:03;2.33;;;1.07;;
40995;SDS011;26723;57.478;12.066;2022-08-02T00:10:44;3.13;;;1.27;;
40995;SDS011;26723;57.478;12.066;2022-08-02T00:14:19;2.25;;;0.98;;
40995;SDS011;26723;57.478;12.066;2022-08-02T00:17:39;3.17;;;1.10;;
40995;SDS011;26723;57.478;12.066;2022-08-02T00:21:21;0.93;;;0.93;;
40995;SDS011;26723;57.478;12.066;2022-08-02T00:28:52;1.87;;;1.10;;
40995;SDS011;26723;57.478;12.066;2022-08-02T00:32:48;2.70;;;1.20;;
40995;SDS011;26723;57.478;12.066;2022-08-02T00:36:54;2.00;;;1.30;;
40995;SDS011;26723;57.478;12.066;2022-08-02T00:40:19;1.80;;;1.00;;
40995;SDS011;26723;57.478;12.066;2022-08-02T00:44:15;2.43;;;1.10;;
40995;SDS011;26723;57.478;12.066;2022-08-02T00:47:57;2.00;;;1.03;;
40995;SDS011;26723;57.478;12.066;2022-08-02T00:51:38;2.27;;;1.03;;
40995;SDS011;26723;57.478;12.066;2022-08-02T00:58:44;1.93;;;0.80;;
40995;SDS011;26723;57.478;12.066;2022-08-02T01:02:05;1.93;;;1.07;;
40995;SDS011;26723;57.478;12.066;2022-08-02T01:09:31;1.30;;;1.07;;
40995;SDS011;26723;57.478;12.066;2022-08-02T01:12:47;1.33;;;0.93;;
40995;SDS011;26723;57.478;12.066;2022-08-02T01:20:15;3.53;;;1.20;;
40995;SDS011;26723;57.478;12.066;2022-08-02T01:24:25;0.73;;;0.73;;
40995;SDS011;26723;57.478;12.066;2022-08-02T01:28:27;1.37;;;0.80;;
40995;SDS011;26723;57.478;12.066;2022-08-02T01:32:03;2.40;;;1.00;;
40995;SDS011;26723;57.478;12.066;2022-08-02T01:35:32;1.63;;;1.00;;
40995;SDS011;26723;57.478;12.066;2022-08-02T01:39:20;2.13;;;1.23;;
40995;SDS011;26723;57.478;12.066;2022-08-02T01:42:42;2.37;;;1.07;;
40995;SDS011;26723;57.478;12.066;2022-08-02T01:46:22;2.27;;;1.10;;
40995;SDS011;26723;57.478;12.066;2022-08-02T01:50:25;3.50;;;0.90;;
40995;SDS011;26723;57.478;12.066;2022-08-02T01:53:44;2.97;;;1.10;;
40995;SDS011;26723;57.478;12.066;2022-08-02T01:57:14;2.37;;;1.00;;
40995;SDS011;26723;57.478;12.066;2022-08-02T02:00:33;1.53;;;1.00;;
40995;SDS011;26723;57.478;12.066;2022-08-02T02:04:33;3.27;;;1.10;;
40995;SDS011;26723;57.478;12.066;2022-08-02T02:08:07;1.63;;;1.23;;
40995;SDS011;26723;57.478;12.066;2022-08-02T02:11:33;2.50;;;1.03;;
40995;SDS011;26723;57.478;12.066;2022-08-02T02:15:38;2.00;;;1.00;;
40995;SDS011;26723;57.478;12.066;2022-08-02T02:19:16;2.77;;;1.03;;
40995;SDS011;26723;57.478;12.066;2022-08-02T02:23:11;0.97;;;0.87;;
40995;SDS011;26723;57.478;12.066;2022-08-02T02:26:45;1.33;;;0.83;;
40995;SDS011;26723;57.478;12.066;2022-08-02T02:30:28;2.57;;;1.30;;
40995;SDS011;26723;57.478;12.066;2022-08-02T02:33:43;2.30;;;1.10;;
40995;SDS011;26723;57.478;12.066;2022-08-02T02:37:07;1.40;;;0.90;;
40995;SDS011;26723;57.478;12.066;2022-08-02T02:40:42;2.10;;;1.10;;
40995;SDS011;26723;57.478;12.066;2022-08-02T02:44:17;2.17;;;1.13;;
40995;SDS011;26723;57.478;12.066;2022-08-02T02:47:34;2.10;;;1.07;;
40995;SDS011;26723;57.478;12.066;2022-08-02T02:50:54;1.00;;;0.90;;
40995;SDS011;26723;57.478;12.066;2022-08-02T02:54:22;1.37;;;0.80;;
40995;SDS011;26723;57.478;12.066;2022-08-02T02:57:43;2.40;;;1.13;;
40995;SDS011;26723;57.478;12.066;2022-08-02T03:01:06;0.97;;;0.90;;
40995;SDS011;26723;57.478;12.066;2022-08-02T03:05:05;1.33;;;1.10;;
40995;SDS011;26723;57.478;12.066;2022-08-02T03:08:30;1.07;;;0.90;;
40995;SDS011;26723;57.478;12.066;2022-08-02T03:11:56;0.90;;;0.90;;
40995;SDS011;26723;57.478;12.066;2022-08-02T03:15:23;1.70;;;0.90;;
40995;SDS011;26723;57.478;12.066;2022-08-02T03:18:43;2.10;;;0.93;;
40995;SDS011;26723;57.478;12.066;2022-08-02T03:21:57;2.47;;;1.43;;
40995;SDS011;26723;57.478;12.066;2022-08-02T03:25:11;1.97;;;1.00;;
40995;SDS011;26723;57.478;12.066;2022-08-02T03:29:25;2.57;;;1.23;;
40995;SDS011;26723;57.478;12.066;2022-08-02T03:32:47;0.80;;;0.80;;
40995;SDS011;26723;57.478;12.066;2022-08-02T03:36:15;2.93;;;1.00;;
40995;SDS011;26723;57.478;12.066;2022-08-02T03:47:18;1.13;;;0.80;;
40995;SDS011;26723;57.478;12.066;2022-08-02T03:51:15;1.23;;;0.90;;
40995;SDS011;26723;57.478;12.066;2022-08-02T03:55:01;0.97;;;0.80;;
40995;SDS011;26723;57.478;12.066;2022-08-02T03:58:21;1.57;;;0.80;;
40995;SDS011;26723;57.478;12.066;2022-08-02T04:02:09;1.20;;;1.00;;
40995;SDS011;26723;57.478;12.066;2022-08-02T04:05:32;1.93;;;0.90;;
40995;SDS011;26723;57.478;12.066;2022-08-02T04:09:05;1.57;;;0.93;;
40995;SDS011;26723;57.478;12.066;2022-08-02T04:12:31;1.53;;;0.90;;
40995;SDS011;26723;57.478;12.066;2022-08-02T04:15:45;1.00;;;0.93;;
40995;SDS011;26723;57.478;12.066;2022-08-02T04:18:59;2.20;;;0.60;;
40995;SDS011;26723;57.478;12.066;2022-08-02T04:22:17;1.00;;;1.00;;
40995;SDS011;26723;57.478;12.066;2022-08-02T04:25:37;1.13;;;0.83;;
40995;SDS011;26723;57.478;12.066;2022-08-02T04:28:48;0.77;;;0.70;;
40995;SDS011;26723;57.478;12.066;2022-08-02T04:32:07;2.30;;;0.73;;
40995;SDS011;26723;57.478;12.066;2022-08-02T04:35:38;1.40;;;0.90;;
40995;SDS011;26723;57.478;12.066;2022-08-02T04:42:28;1.03;;;0.93;;
40995;SDS011;26723;57.478;12.066;2022-08-02T04:45:44;1.47;;;0.80;;
40995;SDS011;26723;57.478;12.066;2022-08-02T04:49:00;2.33;;;0.80;;
40995;SDS011;26723;57.478;12.066;2022-08-02T04:52:23;1.20;;;0.83;;
40995;SDS011;26723;57.478;12.066;2022-08-02T04:55:56;1.73;;;0.70;;
40995;SDS011;26723;57.478;12.066;2022-08-02T04:59:15;1.53;;;0.63;;
40995;SDS011;26723;57.478;12.066;2022-08-02T05:02:32;1.13;;;0.60;;
40995;SDS011;26723;57.478;12.066;2022-08-02T05:05:57;1.13;;;0.60;;
40995;SDS011;26723;57.478;12.066;2022-08-02T05:09:12;1.15;;;0.65;;
40995;SDS011;26723;57.478;12.066;2022-08-02T05:12:24;1.33;;;0.65;;
40995;SDS011;26723;57.478;12.066;2022-08-02T05:16:06;0.88;;;0.88;;
40995;SDS011;26723;57.478;12.066;2022-08-02T05:19:37;0.80;;;0.77;;
40995;SDS011;26723;57.478;12.066;2022-08-02T05:22:52;1.13;;;0.60;;
40995;SDS011;26723;57.478;12.066;2022-08-02T05:26:26;2.40;;;0.82;;
40995;SDS011;26723;57.478;12.066;2022-08-02T05:30:08;0.98;;;0.88;;
40995;SDS011;26723;57.478;12.066;2022-08-02T05:33:19;1.13;;;0.93;;
40995;SDS011;26723;57.478;12.066;2022-08-02T05:36:31;2.08;;;0.73;;
40995;SDS011;26723;57.478;12.066;2022-08-02T05:39:47;1.45;;;0.60;;
40995;SDS011;26723;57.478;12.066;2022-08-02T05:43:10;2.50;;;0.80;;
40995;SDS011;26723;57.478;12.066;2022-08-02T05:46:54;1.00;;;0.60;;
40995;SDS011;26723;57.478;12.066;2022-08-02T05:50:23;1.67;;;0.70;;
40995;SDS011;26723;57.478;12.066;2022-08-02T05:53:40;0.73;;;0.47;;
40995;SDS011;26723;57.478;12.066;2022-08-02T05:57:04;0.57;;;0.57;;
40995;SDS011;26723;57.478;12.066;2022-08-02T06:00:34;1.38;;;1.02;;
40995;SDS011;26723;57.478;12.066;2022-08-02T06:03:59;0.93;;;0.75;;
40995;SDS011;26723;57.478;12.066;2022-08-02T06:07:10;1.70;;;0.60;;
40995;SDS011;26723;57.478;12.066;2022-08-02T06:10:25;0.40;;;0.40;;
40995;SDS011;26723;57.478;12.066;2022-08-02T06:13:35;1.17;;;0.50;;
40995;SDS011;26723;57.478;12.066;2022-08-02T06:16:47;0.50;;;0.50;;
40995;SDS011;26723;57.478;12.066;2022-08-02T06:19:57;0.50;;;0.50;;
40995;SDS011;26723;57.478;12.066;2022-08-02T06:23:17;1.35;;;0.40;;
40995;SDS011;26723;57.478;12.066;2022-08-02T06:26:37;1.20;;;0.68;;
40995;SDS011;26723;57.478;12.066;2022-08-02T06:29:48;0.73;;;0.40;;
40995;SDS011;26723;57.478;12.066;2022-08-02T06:33:11;1.88;;;0.45;;
40995;SDS011;26723;57.478;12.066;2022-08-02T06:36:30;1.58;;;0.65;;
40995;SDS011;26723;57.478;12.066;2022-08-02T06:40:17;0.63;;;0.55;;
40995;SDS011;26723;57.478;12.066;2022-08-02T06:43:44;1.00;;;0.50;;
40995;SDS011;26723;57.478;12.066;2022-08-02T06:46:57;0.80;;;0.70;;
40995;SDS011;26723;57.478;12.066;2022-08-02T06:50:18;1.85;;;0.70;;
40995;SDS011;26723;57.478;12.066;2022-08-02T06:53:43;1.00;;;0.60;;
40995;SDS011;26723;57.478;12.066;2022-08-02T06:56:57;0.85;;;0.73;;
40995;SDS011;26723;57.478;12.066;2022-08-02T07:00:31;0.93;;;0.50;;
40995;SDS011;26723;57.478;12.066;2022-08-02T07:03:40;1.92;;;0.73;;
40995;SDS011;26723;57.478;12.066;2022-08-02T07:06:48;0.75;;;0.60;;
40995;SDS011;26723;57.478;12.066;2022-08-02T07:09:57;0.60;;;0.55;;
40995;SDS011;26723;57.478;12.066;2022-08-02T07:13:08;1.00;;;0.47;;
40995;SDS011;26723;57.478;12.066;2022-08-02T07:16:17;1.10;;;0.40;;
40995;SDS011;26723;57.478;12.066;2022-08-02T07:19:26;1.55;;;0.63;;
40995;SDS011;26723;57.478;12.066;2022-08-02T07:22:43;1.50;;;0.50;;
40995;SDS011;26723;57.478;12.066;2022-08-02T07:25:51;0.50;;;0.50;;
40995;SDS011;26723;57.478;12.066;2022-08-02T07:29:10;1.15;;;0.70;;
40995;SDS011;26723;57.478;12.066;2022-08-02T07:32:19;0.98;;;0.45;;
40995;SDS011;26723;57.478;12.066;2022-08-02T07:35:29;0.52;;;0.40;;
40995;SDS011;26723;57.478;12.066;2022-08-02T07:38:40;0.60;;;0.60;;
40995;SDS011;26723;57.478;12.066;2022-08-02T07:41:50;0.98;;;0.60;;
40995;SDS011;26723;57.478;12.066;2022-08-02T07:45:00;1.23;;;0.50;;
40995;SDS011;26723;57.478;12.066;2022-08-02T07:48:09;1.38;;;0.68;;
40995;SDS011;26723;57.478;12.066;2022-08-02T07:51:17;1.08;;;0.80;;
40995;SDS011;26723;57.478;12.066;2022-08-02T07:54:28;1.33;;;0.63;;
40995;SDS011;26723;57.478;12.066;2022-08-02T07:57:36;0.50;;;0.47;;
40995;SDS011;26723;57.478;12.066;2022-08-02T08:00:53;0.68;;;0.68;;
40995;SDS011;26723;57.478;12.066;2022-08-02T08:04:01;0.75;;;0.47;;
40995;SDS011;26723;57.478;12.066;2022-08-02T08:07:10;0.52;;;0.50;;
40995;SDS011;26723;57.478;12.066;2022-08-02T08:10:18;1.33;;;1.00;;
40995;SDS011;26723;57.478;12.066;2022-08-02T08:13:27;0.63;;;0.63;;
40995;SDS011;26723;57.478;12.066;2022-08-02T08:16:36;0.30;;;0.30;;
40995;SDS011;26723;57.478;12.066;2022-08-02T08:19:45;1.17;;;0.43;;
40995;SDS011;26723;57.478;12.066;2022-08-02T08:22:58;2.13;;;0.70;;
40995;SDS011;26723;57.478;12.066;2022-08-02T08:26:07;0.73;;;0.50;;
40995;SDS011;26723;57.478;12.066;2022-08-02T08:29:21;0.80;;;0.60;;
40995;SDS011;26723;57.478;12.066;2022-08-02T08:32:31;1.05;;;0.70;;
40995;SDS011;26723;57.478;12.066;2022-08-02T08:35:41;0.60;;;0.60;;
40995;SDS011;26723;57.478;12.066;2022-08-02T08:38:50;0.95;;;0.47;;
40995;SDS011;26723;57.478;12.066;2022-08-02T08:42:03;1.17;;;0.70;;
40995;SDS011;26723;57.478;12.066;2022-08-02T08:45:17;0.68;;;0.55;;
40995;SDS011;26723;57.478;12.066;2022-08-02T08:48:30;0.70;;;0.70;;
40995;SDS011;26723;57.478;12.066;2022-08-02T08:51:42;1.55;;;0.60;;
40995;SDS011;26723;57.478;12.066;2022-08-02T08:54:51;0.40;;;0.40;;
40995;SDS011;26723;57.478;12.066;2022-08-02T08:58:05;0.70;;;0.70;;
40995;SDS011;26723;57.478;12.066;2022-08-02T09:01:13;0.73;;;0.60;;
40995;SDS011;26723;57.478;12.066;2022-08-02T09:04:24;1.10;;;0.68;;
40995;SDS011;26723;57.478;12.066;2022-08-02T09:07:32;0.60;;;0.57;;
40995;SDS011;26723;57.478;12.066;2022-08-02T09:10:41;1.23;;;0.70;;
40995;SDS011;26723;57.478;12.066;2022-08-02T09:13:52;0.50;;;0.50;;
40995;SDS011;26723;57.478;12.066;2022-08-02T09:17:05;0.63;;;0.50;;
40995;SDS011;26723;57.478;12.066;2022-08-02T09:20:16;1.15;;;0.60;;
40995;SDS011;26723;57.478;12.066;2022-08-02T09:23:25;0.50;;;0.50;;
40995;SDS011;26723;57.478;12.066;2022-08-02T09:26:40;0.60;;;0.60;;
40995;SDS011;26723;57.478;12.066;2022-08-02T09:29:50;0.82;;;0.55;;
40995;SDS011;26723;57.478;12.066;2022-08-02T09:33:23;0.95;;;0.40;;
40995;SDS011;26723;57.478;12.066;2022-08-02T09:36:38;0.60;;;0.47;;
40995;SDS011;26723;57.478;12.066;2022-08-02T09:39:47;1.33;;;0.68;;
40995;SDS011;26723;57.478;12.066;2022-08-02T09:43:03;0.60;;;0.60;;
40995;SDS011;26723;57.478;12.066;2022-08-02T09:46:12;0.40;;;0.40;;
40995;SDS011;26723;57.478;12.066;2022-08-02T09:49:22;1.45;;;0.70;;
40995;SDS011;26723;57.478;12.066;2022-08-02T09:52:33;1.10;;;0.50;;
40995;SDS011;26723;57.478;12.066;2022-08-02T09:55:53;0.47;;;0.47;;
40995;SDS011;26723;57.478;12.066;2022-08-02T09:59:05;0.35;;;0.32;;
40995;SDS011;26723;57.478;12.066;2022-08-02T10:02:14;0.40;;;0.40;;
40995;SDS011;26723;57.478;12.066;2022-08-02T10:05:28;0.80;;;0.47;;
40995;SDS011;26723;57.478;12.066;2022-08-02T10:08:52;0.30;;;0.30;;
40995;SDS011;26723;57.478;12.066;2022-08-02T10:12:26;1.40;;;0.43;;
40995;SDS011;26723;57.478;12.066;2022-08-02T10:15:57;0.57;;;0.57;;
40995;SDS011;26723;57.478;12.066;2022-08-02T10:19:25;1.40;;;0.70;;
40995;SDS011;26723;57.478;12.066;2022-08-02T10:23:18;1.30;;;0.50;;
40995;SDS011;26723;57.478;12.066;2022-08-02T10:26:46;0.50;;;0.50;;
40995;SDS011;26723;57.478;12.066;2022-08-02T10:29:58;0.63;;;0.63;;
40995;SDS011;26723;57.478;12.066;2022-08-02T10:33:16;1.05;;;0.70;;
40995;SDS011;26723;57.478;12.066;2022-08-02T10:36:41;0.95;;;0.80;;
40995;SDS011;26723;57.478;12.066;2022-08-02T10:40:08;0.95;;;0.52;;
40995;SDS011;26723;57.478;12.066;2022-08-02T10:43:40;0.60;;;0.45;;
40995;SDS011;26723;57.478;12.066;2022-08-02T10:47:37;0.38;;;0.38;;
40995;SDS011;26723;57.478;12.066;2022-08-02T10:51:13;0.40;;;0.40;;
40995;SDS011;26723;57.478;12.066;2022-08-02T10:54:34;0.80;;;0.77;;
40995;SDS011;26723;57.478;12.066;2022-08-02T10:57:49;0.77;;;0.75;;
40995;SDS011;26723;57.478;12.066;2022-08-02T11:01:37;0.93;;;0.60;;
40995;SDS011;26723;57.478;12.066;2022-08-02T11:05:31;0.60;;;0.43;;
40995;SDS011;26723;57.478;12.066;2022-08-02T11:16:12;1.33;;;0.50;;
40995;SDS011;26723;57.478;12.066;2022-08-02T11:23:38;0.60;;;0.60;;
40995;SDS011;26723;57.478;12.066;2022-08-02T11:26:56;0.85;;;0.52;;
40995;SDS011;26723;57.478;12.066;2022-08-02T11:30:17;0.70;;;0.50;;
40995;SDS011;26723;57.478;12.066;2022-08-02T11:33:42;1.40;;;0.50;;
40995;SDS011;26723;57.478;12.066;2022-08-02T11:41:50;0.80;;;0.57;;
40995;SDS011;26723;57.478;12.066;2022-08-02T11:45:16;0.60;;;0.40;;
40995;SDS011;26723;57.478;12.066;2022-08-02T11:49:09;0.65;;;0.60;;
40995;SDS011;26723;57.478;12.066;2022-08-02T11:52:36;0.20;;;0.20;;
40995;SDS011;26723;57.478;12.066;2022-08-02T11:55:59;0.25;;;0.25;;
40995;SDS011;26723;57.478;12.066;2022-08-02T11:59:40;0.60;;;0.60;;
40995;SDS011;26723;57.478;12.066;2022-08-02T12:03:26;0.47;;;0.47;;
40995;SDS011;26723;57.478;12.066;2022-08-02T12:06:40;1.38;;;0.40;;
40995;SDS011;26723;57.478;12.066;2022-08-02T12:10:00;0.40;;;0.40;;
40995;SDS011;26723;57.478;12.066;2022-08-02T12:13:44;1.13;;;0.50;;
40995;SDS011;26723;57.478;12.066;2022-08-02T12:17:30;0.43;;;0.43;;
40995;SDS011;26723;57.478;12.066;2022-08-02T12:21:24;1.48;;;0.55;;
40995;SDS011;26723;57.478;12.066;2022-08-02T12:29:26;1.05;;;0.40;;
40995;SDS011;26723;57.478;12.066;2022-08-02T12:33:43;0.55;;;0.55;;
40995;SDS011;26723;57.478;12.066;2022-08-02T12:37:12;0.40;;;0.40;;
40995;SDS011;26723;57.478;12.066;2022-08-02T12:41:15;0.50;;;0.50;;
40995;SDS011;26723;57.478;12.066;2022-08-02T12:44:49;1.33;;;0.63;;
40995;SDS011;26723;57.478;12.066;2022-08-02T12:47:59;0.70;;;0.70;;
40995;SDS011;26723;57.478;12.066;2022-08-02T12:51:19;0.50;;;0.50;;
40995;SDS011;26723;57.478;12.066;2022-08-02T12:54:29;0.70;;;0.50;;
40995;SDS011;26723;57.478;12.066;2022-08-02T12:57:55;0.98;;;0.50;;
40995;SDS011;26723;57.478;12.066;2022-08-02T13:01:05;0.93;;;0.52;;
40995;SDS011;26723;57.478;12.066;2022-08-02T13:04:14;0.65;;;0.52;;
40995;SDS011;26723;57.478;12.066;2022-08-02T13:07:24;0.50;;;0.50;;
40995;SDS011;26723;57.478;12.066;2022-08-02T13:10:32;0.30;;;0.30;;
40995;SDS011;26723;57.478;12.066;2022-08-02T13:13:41;0.82;;;0.70;;
40995;SDS011;26723;57.478;12.066;2022-08-02T13:16:49;0.90;;;0.57;;
40995;SDS011;26723;57.478;12.066;2022-08-02T13:19:58;1.00;;;0.50;;
40995;SDS011;26723;57.478;12.066;2022-08-02T13:23:08;1.60;;;0.43;;
40995;SDS011;26723;57.478;12.066;2022-08-02T13:26:27;0.88;;;0.52;;
40995;SDS011;26723;57.478;12.066;2022-08-02T13:29:37;2.15;;;0.45;;
40995;SDS011;26723;57.478;12.066;2022-08-02T13:32:45;0.68;;;0.47;;
40995;SDS011;26723;57.478;12.066;2022-08-02T13:35:55;0.52;;;0.50;;
40995;SDS011;26723;57.478;12.066;2022-08-02T13:39:05;0.75;;;0.75;;
40995;SDS011;26723;57.478;12.066;2022-08-02T13:42:14;0.98;;;0.70;;
40995;SDS011;26723;57.478;12.066;2022-08-02T13:45:24;0.90;;;0.90;;
40995;SDS011;26723;57.478;12.066;2022-08-02T13:48:32;0.88;;;0.60;;
40995;SDS011;26723;57.478;12.066;2022-08-02T13:51:41;0.93;;;0.90;;
40995;SDS011;26723;57.478;12.066;2022-08-02T13:54:51;1.02;;;0.55;;
40995;SDS011;26723;57.478;12.066;2022-08-02T13:58:00;0.68;;;0.55;;
40995;SDS011;26723;57.478;12.066;2022-08-02T14:01:10;0.50;;;0.50;;
40995;SDS011;26723;57.478;12.066;2022-08-02T14:04:18;1.05;;;0.63;;
40995;SDS011;26723;57.478;12.066;2022-08-02T14:07:27;0.68;;;0.68;;
40995;SDS011;26723;57.478;12.066;2022-08-02T14:10:37;1.27;;;0.60;;
40995;SDS011;26723;57.478;12.066;2022-08-02T14:13:46;0.63;;;0.63;;
40995;SDS011;26723;57.478;12.066;2022-08-02T14:16:54;0.57;;;0.57;;
40995;SDS011;26723;57.478;12.066;2022-08-02T14:20:07;1.42;;;0.70;;
40995;SDS011;26723;57.478;12.066;2022-08-02T14:23:25;0.98;;;0.98;;
40995;SDS011;26723;57.478;12.066;2022-08-02T14:26:57;0.77;;;0.77;;
40995;SDS011;26723;57.478;12.066;2022-08-02T14:30:06;0.75;;;0.75;;
40995;SDS011;26723;57.478;12.066;2022-08-02T14:33:15;0.70;;;0.70;;
40995;SDS011;26723;57.478;12.066;2022-08-02T14:36:25;1.10;;;0.90;;
40995;SDS011;26723;57.478;12.066;2022-08-02T14:39:34;0.70;;;0.70;;
40995;SDS011;26723;57.478;12.066;2022-08-02T14:43:12;1.77;;;0.70;;
40995;SDS011;26723;57.478;12.066;2022-08-02T14:46:44;1.15;;;0.68;;
40995;SDS011;26723;57.478;12.066;2022-08-02T14:50:05;0.50;;;0.50;;
40995;SDS011;26723;57.478;12.066;2022-08-02T14:53:42;0.63;;;0.63;;
40995;SDS011;26723;57.478;12.066;2022-08-02T14:57:20;0.70;;;0.70;;
40995;SDS011;26723;57.478;12.066;2022-08-02T15:01:04;0.80;;;0.80;;
40995;SDS011;26723;57.478;12.066;2022-08-02T15:05:36;0.93;;;0.80;;
40995;SDS011;26723;57.478;12.066;2022-08-02T15:08:51;1.65;;;0.70;;
40995;SDS011;26723;57.478;12.066;2022-08-02T15:12:36;1.08;;;0.82;;
40995;SDS011;26723;57.478;12.066;2022-08-02T15:15:45;1.15;;;0.63;;
40995;SDS011;26723;57.478;12.066;2022-08-02T15:19:07;1.52;;;0.60;;
40995;SDS011;26723;57.478;12.066;2022-08-02T15:22:17;1.20;;;0.50;;
40995;SDS011;26723;57.478;12.066;2022-08-02T15:25:40;0.95;;;0.70;;
40995;SDS011;26723;57.478;12.066;2022-08-02T15:29:02;1.23;;;0.50;;
40995;SDS011;26723;57.478;12.066;2022-08-02T15:32:25;2.00;;;0.60;;
40995;SDS011;26723;57.478;12.066;2022-08-02T15:36:00;0.60;;;0.57;;
40995;SDS011;26723;57.478;12.066;2022-08-02T15:39:13;0.68;;;0.60;;
40995;SDS011;26723;57.478;12.066;2022-08-02T15:42:25;0.60;;;0.60;;
40995;SDS011;26723;57.478;12.066;2022-08-02T15:45:55;0.50;;;0.50;;
40995;SDS011;26723;57.478;12.066;2022-08-02T15:49:06;0.80;;;0.60;;
40995;SDS011;26723;57.478;12.066;2022-08-02T15:52:17;1.30;;;1.30;;
40995;SDS011;26723;57.478;12.066;2022-08-02T15:55:26;0.98;;;0.98;;
40995;SDS011;26723;57.478;12.066;2022-08-02T15:58:45;0.40;;;0.40;;
40995;SDS011;26723;57.478;12.066;2022-08-02T16:01:59;1.00;;;0.90;;
40995;SDS011;26723;57.478;12.066;2022-08-02T16:05:14;0.82;;;0.82;;
40995;SDS011;26723;57.478;12.066;2022-08-02T16:08:42;1.00;;;1.00;;
40995;SDS011;26723;57.478;12.066;2022-08-02T16:13:11;1.05;;;0.80;;
40995;SDS011;26723;57.478;12.066;2022-08-02T16:20:47;0.68;;;0.68;;
40995;SDS011;26723;57.478;12.066;2022-08-02T16:24:15;1.17;;;0.65;;
40995;SDS011;26723;57.478;12.066;2022-08-02T16:28:00;1.20;;;0.60;;
40995;SDS011;26723;57.478;12.066;2022-08-02T16:32:08;0.82;;;0.55;;
40995;SDS011;26723;57.478;12.066;2022-08-02T16:35:47;0.30;;;0.30;;
40995;SDS011;26723;57.478;12.066;2022-08-02T16:39:25;0.50;;;0.40;;
40995;SDS011;26723;57.478;12.066;2022-08-02T16:42:36;1.35;;;0.70;;
40995;SDS011;26723;57.478;12.066;2022-08-02T16:45:57;0.73;;;0.60;;
40995;SDS011;26723;57.478;12.066;2022-08-02T16:49:15;0.80;;;0.80;;
40995;SDS011;26723;57.478;12.066;2022-08-02T16:52:44;0.75;;;0.70;;
40995;SDS011;26723;57.478;12.066;2022-08-02T16:55:54;3.07;;;0.80;;
40995;SDS011;26723;57.478;12.066;2022-08-02T16:59:03;0.63;;;0.63;;
40995;SDS011;26723;57.478;12.066;2022-08-02T17:02:21;1.10;;;1.00;;
40995;SDS011;26723;57.478;12.066;2022-08-02T17:05:31;2.10;;;1.90;;
40995;SDS011;26723;57.478;12.066;2022-08-02T17:09:10;2.70;;;2.07;;
40995;SDS011;26723;57.478;12.066;2022-08-02T17:12:55;0.90;;;0.90;;
40995;SDS011;26723;57.478;12.066;2022-08-02T17:16:20;1.13;;;0.70;;
40995;SDS011;26723;57.478;12.066;2022-08-02T17:19:51;2.03;;;1.10;;
40995;SDS011;26723;57.478;12.066;2022-08-02T17:23:01;1.13;;;0.70;;
40995;SDS011;26723;57.478;12.066;2022-08-02T17:26:16;1.47;;;0.73;;
40995;SDS011;26723;57.478;12.066;2022-08-02T17:29:49;0.70;;;0.70;;
40995;SDS011;26723;57.478;12.066;2022-08-02T17:33:05;0.70;;;0.70;;
40995;SDS011;26723;57.478;12.066;2022-08-02T17:36:14;1.03;;;0.87;;
40995;SDS011;26723;57.478;12.066;2022-08-02T17:39:30;2.23;;;0.80;;
40995;SDS011;26723;57.478;12.066;2022-08-02T17:42:59;1.23;;;1.00;;
40995;SDS011;26723;57.478;12.066;2022-08-02T17:46:34;0.70;;;0.70;;
40995;SDS011;26723;57.478;12.066;2022-08-02T17:49:50;1.60;;;0.80;;
40995;SDS011;26723;57.478;12.066;2022-08-02T17:53:05;0.63;;;0.60;;
40995;SDS011;26723;57.478;12.066;2022-08-02T17:56:14;1.23;;;0.80;;
40995;SDS011;26723;57.478;12.066;2022-08-02T17:59:24;0.67;;;0.67;;
40995;SDS011;26723;57.478;12.066;2022-08-02T18:02:48;0.93;;;0.83;;
40995;SDS011;26723;57.478;12.066;2022-08-02T18:06:01;1.17;;;1.03;;
40995;SDS011;26723;57.478;12.066;2022-08-02T18:09:14;0.87;;;0.83;;
40995;SDS011;26723;57.478;12.066;2022-08-02T18:12:23;1.35;;;0.70;;
40995;SDS011;26723;57.478;12.066;2022-08-02T18:15:33;1.40;;;0.80;;
40995;SDS011;26723;57.478;12.066;2022-08-02T18:18:42;0.70;;;0.70;;
40995;SDS011;26723;57.478;12.066;2022-08-02T18:21:55;1.00;;;0.87;;
40995;SDS011;26723;57.478;12.066;2022-08-02T18:25:04;1.23;;;0.80;;
40995;SDS011;26723;57.478;12.066;2022-08-02T18:28:15;0.80;;;0.60;;
40995;SDS011;26723;57.478;12.066;2022-08-02T18:31:23;0.73;;;0.70;;
40995;SDS011;26723;57.478;12.066;2022-08-02T18:34:33;2.20;;;0.73;;
40995;SDS011;26723;57.478;12.066;2022-08-02T18:37:45;1.00;;;0.85;;
40995;SDS011;26723;57.478;12.066;2022-08-02T18:41:14;0.77;;;0.77;;
40995;SDS011;26723;57.478;12.066;2022-08-02T18:44:26;1.70;;;0.60;;
40995;SDS011;26723;57.478;12.066;2022-08-02T18:47:36;0.75;;;0.70;;
40995;SDS011;26723;57.478;12.066;2022-08-02T18:50:45;1.07;;;0.80;;
40995;SDS011;26723;57.478;12.066;2022-08-02T18:53:55;0.70;;;0.70;;
40995;SDS011;26723;57.478;12.066;2022-08-02T18:57:03;0.50;;;0.50;;
40995;SDS011;26723;57.478;12.066;2022-08-02T19:00:31;1.10;;;0.87;;
40995;SDS011;26723;57.478;12.066;2022-08-02T19:03:42;0.50;;;0.50;;
40995;SDS011;26723;57.478;12.066;2022-08-02T19:06:56;0.80;;;0.80;;
40995;SDS011;26723;57.478;12.066;2022-08-02T19:10:13;1.00;;;0.80;;
40995;SDS011;26723;57.478;12.066;2022-08-02T19:13:22;0.57;;;0.57;;
40995;SDS011;26723;57.478;12.066;2022-08-02T19:16:39;0.60;;;0.60;;
40995;SDS011;26723;57.478;12.066;2022-08-02T19:19:51;0.70;;;0.70;;
40995;SDS011;26723;57.478;12.066;2022-08-02T19:23:12;0.83;;;0.60;;
40995;SDS011;26723;57.478;12.066;2022-08-02T19:26:29;0.60;;;0.60;;
40995;SDS011;26723;57.478;12.066;2022-08-02T19:29:45;0.53;;;0.50;;
40995;SDS011;26723;57.478;12.066;2022-08-02T19:33:02;0.57;;;0.57;;
40995;SDS011;26723;57.478;12.066;2022-08-02T19:36:59;0.53;;;0.53;;
40995;SDS011;26723;57.478;12.066;2022-08-02T19:40:14;0.60;;;0.60;;
40995;SDS011;26723;57.478;12.066;2022-08-02T19:43:32;0.80;;;0.80;;
40995;SDS011;26723;57.478;12.066;2022-08-02T19:47:05;0.73;;;0.73;;
40995;SDS011;26723;57.478;12.066;2022-08-02T19:50:25;0.87;;;0.63;;
40995;SDS011;26723;57.478;12.066;2022-08-02T19:53:37;0.60;;;0.60;;
40995;SDS011;26723;57.478;12.066;2022-08-02T19:57:11;1.17;;;0.90;;
40995;SDS011;26723;57.478;12.066;2022-08-02T20:00:25;1.13;;;0.90;;
40995;SDS011;26723;57.478;12.066;2022-08-02T20:03:36;0.70;;;0.70;;
40995;SDS011;26723;57.478;12.066;2022-08-02T20:07:01;1.03;;;1.03;;
40995;SDS011;26723;57.478;12.066;2022-08-02T20:10:15;0.83;;;0.80;;
40995;SDS011;26723;57.478;12.066;2022-08-02T20:13:31;2.40;;;1.10;;
40995;SDS011;26723;57.478;12.066;2022-08-02T20:16:56;1.20;;;1.20;;
40995;SDS011;26723;57.478;12.066;2022-08-02T20:20:15;1.30;;;1.20;;
40995;SDS011;26723;57.478;12.066;2022-08-02T20:23:36;1.13;;;1.10;;
40995;SDS011;26723;57.478;12.066;2022-08-02T20:26:55;1.70;;;1.30;;
40995;SDS011;26723;57.478;12.066;2022-08-02T20:30:07;1.70;;;1.33;;
40995;SDS011;26723;57.478;12.066;2022-08-02T20:33:18;1.50;;;1.30;;
40995;SDS011;26723;57.478;12.066;2022-08-02T20:36:36;1.80;;;1.67;;
40995;SDS011;26723;57.478;12.066;2022-08-02T20:39:45;1.33;;;1.23;;
40995;SDS011;26723;57.478;12.066;2022-08-02T20:42:59;1.40;;;1.30;;
40995;SDS011;26723;57.478;12.066;2022-08-02T20:46:18;2.20;;;1.30;;
40995;SDS011;26723;57.478;12.066;2022-08-02T20:49:31;2.13;;;1.42;;